sensor_id;sensor_type;location;lat;lon;timestamp;pressure;altitude;pressure_sealevel;temperature;humidity
46836;BME280;32573;51.290;6.926;2024-01-30T00:02:22;101318.63;;;10.66;100.00
46836;BME280;32573;51.290;6.926;2024-01-30T00:04:51;101318.63;;;10.66;100.00
46836;BME280;32573;51.290;6.926;2024-01-30T00:07:19;101319.50;;;10.67;100.00
46836;BME280;32573;51.290;6.926;2024-01-30T00:09:48;101316.00;;;10.66;100.00
46836;BME280;32573;51.290;6.926;2024-01-30T00:12:18;101315.06;;;10.66;100.00
46836;BME280;32573;51.290;6.926;2024-01-30T00:14:47;101300.19;;;10.65;100.00
46836;BME280;32573;51.290;6.926;2024-01-30T00:17:20;101307.22;;;10.66;100.00
46836;BME280;32573;51.290;6.926;2024-01-30T00:19:49;101312.44;;;10.66;100.00
46836;BME280;32573;51.290;6.926;2024-01-30T00:22:17;101308.06;;;10.65;100.00
46836;BME280;32573;51.290;6.926;2024-01-30T00:24:46;101308.06;;;10.65;100.00
46836;BME280;32573;51.290;6.926;2024-01-30T00:27:15;101309.78;;;10.64;100.00
46836;BME280;32573;51.290;6.926;2024-01-30T00:29:44;101309.78;;;10.64;100.00
46836;BME280;32573;51.290;6.926;2024-01-30T00:32:13;101303.66;;;10.64;100.00
46836;BME280;32573;51.290;6.926;2024-01-30T00:34:41;101297.50;;;10.63;100.00
46836;BME280;32573;51.290;6.926;2024-01-30T00:37:10;101307.09;;;10.63;100.00
46836;BME280;32573;51.290;6.926;2024-01-30T00:39:38;101294.84;;;10.62;100.00
46836;BME280;32573;51.290;6.926;2024-01-30T00:42:07;101303.50;;;10.61;100.00
46836;BME280;32573;51.290;6.926;2024-01-30T00:44:35;101295.63;;;10.61;100.00
46836;BME280;32573;51.290;6.926;2024-01-30T00:47:07;101295.59;;;10.59;100.00
46836;BME280;32573;51.290;6.926;2024-01-30T00:49:36;101298.13;;;10.57;100.00
46836;BME280;32573;51.290;6.926;2024-01-30T00:52:05;101294.69;;;10.58;100.00
46836;BME280;32573;51.290;6.926;2024-01-30T00:54:34;101301.56;;;10.56;100.00
46836;BME280;32573;51.290;6.926;2024-01-30T00:57:02;101300.69;;;10.56;100.00
46836;BME280;32573;51.290;6.926;2024-01-30T00:59:30;101296.25;;;10.55;100.00
46836;BME280;32573;51.290;6.926;2024-01-30T01:01:59;101290.97;;;10.53;100.00
46836;BME280;32573;51.290;6.926;2024-01-30T01:04:29;101299.63;;;10.52;100.00
46836;BME280;32573;51.290;6.926;2024-01-30T01:06:57;101300.47;;;10.51;100.00
46836;BME280;32573;51.290;6.926;2024-01-30T01:09:26;101295.16;;;10.50;100.00
46836;BME280;32573;51.290;6.926;2024-01-30T01:11:54;101301.28;;;10.50;100.00
46836;BME280;32573;51.290;6.926;2024-01-30T01:14:23;101302.94;;;10.48;100.00
46836;BME280;32573;51.290;6.926;2024-01-30T01:16:51;101307.28;;;10.48;100.00
46836;BME280;32573;51.290;6.926;2024-01-30T01:19:20;101309.84;;;10.46;100.00
46836;BME280;32573;51.290;6.926;2024-01-30T01:21:50;101299.19;;;10.43;100.00
46836;BME280;32573;51.290;6.926;2024-01-30T01:24:18;101296.53;;;10.42;100.00
46836;BME280;32573;51.290;6.926;2024-01-30T01:26:47;101305.19;;;10.41;100.00
46836;BME280;32573;51.290;6.926;2024-01-30T01:29:15;101302.50;;;10.39;100.00
46836;BME280;32573;51.290;6.926;2024-01-30T01:31:44;101302.50;;;10.39;100.00
46836;BME280;32573;51.290;6.926;2024-01-30T01:34:13;101305.94;;;10.38;100.00
46836;BME280;32573;51.290;6.926;2024-01-30T01:36:41;101301.63;;;10.39;100.00
46836;BME280;32573;51.290;6.926;2024-01-30T01:39:11;101298.91;;;10.37;100.00
46836;BME280;32573;51.290;6.926;2024-01-30T01:41:40;101294.53;;;10.36;100.00
46836;BME280;32573;51.290;6.926;2024-01-30T01:44:09;101301.44;;;10.35;100.00
46836;BME280;32573;51.290;6.926;2024-01-30T01:46:37;101290.09;;;10.35;100.00
46836;BME280;32573;51.290;6.926;2024-01-30T01:49:06;101294.44;;;10.34;100.00
46836;BME280;32573;51.290;6.926;2024-01-30T01:51:36;101291.75;;;10.33;100.00
46836;BME280;32573;51.290;6.926;2024-01-30T01:54:05;101287.34;;;10.32;100.00
46836;BME280;32573;51.290;6.926;2024-01-30T01:56:35;101288.19;;;10.31;100.00
46836;BME280;32573;51.290;6.926;2024-01-30T01:59:06;101289.97;;;10.32;100.00
46836;BME280;32573;51.290;6.926;2024-01-30T02:01:36;101289.06;;;10.31;100.00
46836;BME280;32573;51.290;6.926;2024-01-30T02:04:05;101290.72;;;10.29;100.00
46836;BME280;32573;51.290;6.926;2024-01-30T02:06:34;101282.78;;;10.28;100.00
46836;BME280;32573;51.290;6.926;2024-01-30T02:09:03;101281.97;;;10.29;100.00
46836;BME280;32573;51.290;6.926;2024-01-30T02:11:32;101286.31;;;10.28;100.00
46836;BME280;32573;51.290;6.926;2024-01-30T02:14:04;101276.63;;;10.27;100.00
46836;BME280;32573;51.290;6.926;2024-01-30T02:16:32;101281.84;;;10.27;100.00
46836;BME280;32573;51.290;6.926;2024-01-30T02:19:01;101268.69;;;10.26;100.00
46836;BME280;32573;51.290;6.926;2024-01-30T02:21:31;101269.59;;;10.26;100.00
46836;BME280;32573;51.290;6.926;2024-01-30T02:23:59;101266.06;;;10.26;100.00
46836;BME280;32573;51.290;6.926;2024-01-30T02:26:28;101267.78;;;10.25;100.00
46836;BME280;32573;51.290;6.926;2024-01-30T02:28:57;101266.91;;;10.25;100.00
46836;BME280;32573;51.290;6.926;2024-01-30T02:31:25;101266.06;;;10.26;100.00
46836;BME280;32573;51.290;6.926;2024-01-30T02:33:54;101266.03;;;10.24;100.00
46836;BME280;32573;51.290;6.926;2024-01-30T02:36:22;101259.91;;;10.24;100.00
46836;BME280;32573;51.290;6.926;2024-01-30T02:38:52;101259.06;;;10.25;100.00
46836;BME280;32573;51.290;6.926;2024-01-30T02:41:21;101256.44;;;10.25;100.00
46836;BME280;32573;51.290;6.926;2024-01-30T02:43:49;101256.44;;;10.25;100.00
46836;BME280;32573;51.290;6.926;2024-01-30T02:46:18;101256.44;;;10.25;100.00
46836;BME280;32573;51.290;6.926;2024-01-30T02:48:46;101261.66;;;10.25;100.00
46836;BME280;32573;51.290;6.926;2024-01-30T02:51:16;101258.22;;;10.26;100.00
46836;BME280;32573;51.290;6.926;2024-01-30T02:53:46;101257.31;;;10.25;100.00
46836;BME280;32573;51.290;6.926;2024-01-30T02:56:16;101245.13;;;10.26;100.00
46836;BME280;32573;51.290;6.926;2024-01-30T02:58:45;101247.69;;;10.24;100.00
46836;BME280;32573;51.290;6.926;2024-01-30T03:01:13;101241.56;;;10.24;100.00
46836;BME280;32573;51.290;6.926;2024-01-30T03:03:42;101241.56;;;10.24;100.00
46836;BME280;32573;51.290;6.926;2024-01-30T03:06:11;101243.28;;;10.23;100.00
46836;BME280;32573;51.290;6.926;2024-01-30T03:08:39;101243.28;;;10.23;100.00
46836;BME280;32573;51.290;6.926;2024-01-30T03:11:07;101242.38;;;10.23;100.00
46836;BME280;32573;51.290;6.926;2024-01-30T03:13:37;101237.16;;;10.23;100.00
46836;BME280;32573;51.290;6.926;2024-01-30T03:16:06;101244.19;;;10.24;100.00
46836;BME280;32573;51.290;6.926;2024-01-30T03:18:34;101242.47;;;10.24;100.00
46836;BME280;32573;51.290;6.926;2024-01-30T03:21:03;101241.56;;;10.24;100.00
46836;BME280;32573;51.290;6.926;2024-01-30T03:23:32;101234.53;;;10.23;100.00
46836;BME280;32573;51.290;6.926;2024-01-30T03:26:00;101238.97;;;10.24;100.00
46836;BME280;32573;51.290;6.926;2024-01-30T03:28:31;101233.72;;;10.24;100.00
46836;BME280;32573;51.290;6.926;2024-01-30T03:31:00;101233.72;;;10.24;100.00
46836;BME280;32573;51.290;6.926;2024-01-30T03:33:29;101228.50;;;10.24;100.00
46836;BME280;32573;51.290;6.926;2024-01-30T03:35:57;101222.34;;;10.23;100.00
46836;BME280;32573;51.290;6.926;2024-01-30T03:38:26;101227.56;;;10.23;100.00
46836;BME280;32573;51.290;6.926;2024-01-30T03:40:54;101230.28;;;10.25;100.00
46836;BME280;32573;51.290;6.926;2024-01-30T03:43:22;101225.03;;;10.25;100.00
46836;BME280;32573;51.290;6.926;2024-01-30T03:45:51;101226.75;;;10.24;100.00
46836;BME280;32573;51.290;6.926;2024-01-30T03:48:21;101238.97;;;10.24;100.00
46836;BME280;32573;51.290;6.926;2024-01-30T03:50:49;101232.06;;;10.26;100.00
46836;BME280;32573;51.290;6.926;2024-01-30T03:53:18;101226.75;;;10.24;100.00
46836;BME280;32573;51.290;6.926;2024-01-30T03:55:46;101225.94;;;10.25;100.00
46836;BME280;32573;51.290;6.926;2024-01-30T03:58:14;101222.44;;;10.25;100.00
46836;BME280;32573;51.290;6.926;2024-01-30T04:00:43;101222.44;;;10.25;100.00
46836;BME280;32573;51.290;6.926;2024-01-30T04:03:12;101218.97;;;10.26;100.00
46836;BME280;32573;51.290;6.926;2024-01-30T04:05:44;101211.13;;;10.26;100.00
46836;BME280;32573;51.290;6.926;2024-01-30T04:08:13;101216.34;;;10.26;100.00
46836;BME280;32573;51.290;6.926;2024-01-30T04:10:41;101218.97;;;10.26;100.00
46836;BME280;32573;51.290;6.926;2024-01-30T04:13:10;101210.22;;;10.25;100.00
46836;BME280;32573;51.290;6.926;2024-01-30T04:15:39;101211.13;;;10.26;100.00
46836;BME280;32573;51.290;6.926;2024-01-30T04:18:08;101204.09;;;10.25;100.00
46836;BME280;32573;51.290;6.926;2024-01-30T04:20:36;101202.38;;;10.25;100.00
46836;BME280;32573;51.290;6.926;2024-01-30T04:23:06;101208.50;;;10.26;100.00
46836;BME280;32573;51.290;6.926;2024-01-30T04:25:34;101208.44;;;10.24;100.00
46836;BME280;32573;51.290;6.926;2024-01-30T04:28:03;101206.72;;;10.25;100.00
46836;BME280;32573;51.290;6.926;2024-01-30T04:30:31;101200.53;;;10.23;100.00
46836;BME280;32573;51.290;6.926;2024-01-30T04:33:00;101200.53;;;10.23;100.00
46836;BME280;32573;51.290;6.926;2024-01-30T04:35:28;101194.31;;;10.21;100.00
46836;BME280;32573;51.290;6.926;2024-01-30T04:37:58;101196.94;;;10.21;100.00
46836;BME280;32573;51.290;6.926;2024-01-30T04:40:29;101188.19;;;10.20;100.00
46836;BME280;32573;51.290;6.926;2024-01-30T04:42:57;101202.16;;;10.21;100.00
46836;BME280;32573;51.290;6.926;2024-01-30T04:45:26;101201.28;;;10.20;100.00
46836;BME280;32573;51.290;6.926;2024-01-30T04:47:54;101203.84;;;10.19;100.00
46836;BME280;32573;51.290;6.926;2024-01-30T04:50:22;101198.59;;;10.19;100.00
46836;BME280;32573;51.290;6.926;2024-01-30T04:52:51;101208.09;;;10.17;100.00
46836;BME280;32573;51.290;6.926;2024-01-30T04:55:19;101201.06;;;10.15;100.00
46836;BME280;32573;51.290;6.926;2024-01-30T04:57:51;101203.69;;;10.15;100.00
46836;BME280;32573;51.290;6.926;2024-01-30T05:00:19;101208.00;;;10.15;100.00
46836;BME280;32573;51.290;6.926;2024-01-30T05:02:48;101212.34;;;10.14;100.00
46836;BME280;32573;51.290;6.926;2024-01-30T05:05:16;101209.75;;;10.14;100.00
46836;BME280;32573;51.290;6.926;2024-01-30T05:07:44;101208.91;;;10.15;100.00
46836;BME280;32573;51.290;6.926;2024-01-30T05:10:13;101208.09;;;10.17;100.00
46836;BME280;32573;51.290;6.926;2024-01-30T05:12:41;101209.81;;;10.16;100.00
46836;BME280;32573;51.290;6.926;2024-01-30T05:15:11;101202.78;;;10.15;100.00
46836;BME280;32573;51.290;6.926;2024-01-30T05:17:40;101198.44;;;10.15;100.00
46836;BME280;32573;51.290;6.926;2024-01-30T05:20:10;101198.44;;;10.15;100.00
46836;BME280;32573;51.290;6.926;2024-01-30T05:22:39;101198.53;;;10.17;100.00
46836;BME280;32573;51.290;6.926;2024-01-30T05:25:12;101201.06;;;10.15;100.00
46836;BME280;32573;51.290;6.926;2024-01-30T05:27:42;101195.81;;;10.15;100.00
46836;BME280;32573;51.290;6.926;2024-01-30T05:30:12;101201.91;;;10.14;100.00
46836;BME280;32573;51.290;6.926;2024-01-30T05:32:41;101199.28;;;10.14;100.00
46836;BME280;32573;51.290;6.926;2024-01-30T05:35:09;101198.31;;;10.12;100.00
46836;BME280;32573;51.290;6.926;2024-01-30T05:37:38;101200.13;;;10.13;100.00
46836;BME280;32573;51.290;6.926;2024-01-30T05:40:08;101200.91;;;10.12;100.00
46836;BME280;32573;51.290;6.926;2024-01-30T05:42:36;101195.69;;;10.12;100.00
46836;BME280;32573;51.290;6.926;2024-01-30T05:45:06;101193.97;;;10.13;100.00
46836;BME280;32573;51.290;6.926;2024-01-30T05:47:36;101193.06;;;10.12;100.00
46836;BME280;32573;51.290;6.926;2024-01-30T05:50:06;101201.75;;;10.11;100.00
46836;BME280;32573;51.290;6.926;2024-01-30T05:52:34;101191.28;;;10.11;100.00
46836;BME280;32573;51.290;6.926;2024-01-30T05:55:03;101192.09;;;10.10;100.00
46836;BME280;32573;51.290;6.926;2024-01-30T05:57:32;101192.94;;;10.09;100.00
46836;BME280;32573;51.290;6.926;2024-01-30T06:00:01;101203.41;;;10.09;100.00
46836;BME280;32573;51.290;6.926;2024-01-30T06:02:32;101201.63;;;10.08;100.00
46836;BME280;32573;51.290;6.926;2024-01-30T06:05:02;101191.97;;;10.07;100.00
46836;BME280;32573;51.290;6.926;2024-01-30T06:07:31;101194.59;;;10.07;100.00
46836;BME280;32573;51.290;6.926;2024-01-30T06:10:04;101188.47;;;10.07;100.00
46836;BME280;32573;51.290;6.926;2024-01-30T06:12:34;101186.66;;;10.06;100.00
46836;BME280;32573;51.290;6.926;2024-01-30T06:15:03;101181.38;;;10.04;100.00
46836;BME280;32573;51.290;6.926;2024-01-30T06:17:31;101185.75;;;10.05;100.00
46836;BME280;32573;51.290;6.926;2024-01-30T06:20:01;101198.03;;;10.06;100.00
46836;BME280;32573;51.290;6.926;2024-01-30T06:22:31;101195.41;;;10.06;100.00
46836;BME280;32573;51.290;6.926;2024-01-30T06:24:59;101183.16;;;10.05;100.00
46836;BME280;32573;51.290;6.926;2024-01-30T06:27:27;101177.09;;;10.06;100.00
46836;BME280;32573;51.290;6.926;2024-01-30T06:29:56;101178.88;;;10.07;100.00
46836;BME280;32573;51.290;6.926;2024-01-30T06:32:24;101178.88;;;10.07;100.00
46836;BME280;32573;51.290;6.926;2024-01-30T06:34:53;101180.69;;;10.08;100.00
46836;BME280;32573;51.290;6.926;2024-01-30T06:37:24;101181.59;;;10.09;100.00
46836;BME280;32573;51.290;6.926;2024-01-30T06:39:55;101178.13;;;10.10;100.00
46836;BME280;32573;51.290;6.926;2024-01-30T06:42:27;101173.78;;;10.10;100.00
46836;BME280;32573;51.290;6.926;2024-01-30T06:44:57;101170.28;;;10.10;100.00
46836;BME280;32573;51.290;6.926;2024-01-30T06:47:27;101175.59;;;10.11;100.00
46836;BME280;32573;51.290;6.926;2024-01-30T06:49:56;101180.84;;;10.11;100.00
46836;BME280;32573;51.290;6.926;2024-01-30T06:52:27;101178.28;;;10.13;100.00
46836;BME280;32573;51.290;6.926;2024-01-30T06:54:56;101180.00;;;10.12;100.00
46836;BME280;32573;51.290;6.926;2024-01-30T06:57:25;101183.59;;;10.14;100.00
46836;BME280;32573;51.290;6.926;2024-01-30T06:59:56;101178.34;;;10.14;100.00
46836;BME280;32573;51.290;6.926;2024-01-30T07:02:26;101192.31;;;10.15;100.00
46836;BME280;32573;51.290;6.926;2024-01-30T07:04:57;101194.13;;;10.16;100.00
46836;BME280;32573;51.290;6.926;2024-01-30T07:07:29;101193.28;;;10.17;100.00
46836;BME280;32573;51.290;6.926;2024-01-30T07:09:57;101202.03;;;10.18;100.00
46836;BME280;32573;51.290;6.926;2024-01-30T07:12:25;101203.84;;;10.19;100.00
46836;BME280;32573;51.290;6.926;2024-01-30T07:14:54;101199.50;;;10.19;100.00
46836;BME280;32573;51.290;6.926;2024-01-30T07:17:23;101199.50;;;10.19;100.00
46836;BME280;32573;51.290;6.926;2024-01-30T07:19:52;101205.63;;;10.20;100.00
46836;BME280;32573;51.290;6.926;2024-01-30T07:22:21;101201.28;;;10.20;100.00
46836;BME280;32573;51.290;6.926;2024-01-30T07:24:52;101201.28;;;10.20;100.00
46836;BME280;32573;51.290;6.926;2024-01-30T07:27:22;101211.75;;;10.20;100.00
46836;BME280;32573;51.290;6.926;2024-01-30T07:29:51;101210.00;;;10.21;100.00
46836;BME280;32573;51.290;6.926;2024-01-30T07:32:20;101205.63;;;10.20;100.00
46836;BME280;32573;51.290;6.926;2024-01-30T07:34:53;101210.94;;;10.21;100.00
46836;BME280;32573;51.290;6.926;2024-01-30T07:37:24;101214.44;;;10.22;100.00
46836;BME280;32573;51.290;6.926;2024-01-30T07:39:55;101216.22;;;10.23;100.00
46836;BME280;32573;51.290;6.926;2024-01-30T07:42:25;101220.56;;;10.22;100.00
46836;BME280;32573;51.290;6.926;2024-01-30T07:44:56;101217.09;;;10.23;100.00
46836;BME280;32573;51.290;6.926;2024-01-30T07:47:26;101212.78;;;10.24;100.00
46836;BME280;32573;51.290;6.926;2024-01-30T07:49:56;101222.44;;;10.25;100.00
46836;BME280;32573;51.290;6.926;2024-01-30T07:52:25;101228.63;;;10.27;100.00
46836;BME280;32573;51.290;6.926;2024-01-30T07:54:55;101223.41;;;10.27;100.00
46836;BME280;32573;51.290;6.926;2024-01-30T07:57:23;101227.81;;;10.28;100.00
46836;BME280;32573;51.290;6.926;2024-01-30T07:59:52;101230.53;;;10.29;100.00
46836;BME280;32573;51.290;6.926;2024-01-30T08:02:22;101234.03;;;10.30;100.00
46836;BME280;32573;51.290;6.926;2024-01-30T08:04:51;101235.84;;;10.31;100.00
46836;BME280;32573;51.290;6.926;2024-01-30T08:07:22;101243.75;;;10.32;100.00
46836;BME280;32573;51.290;6.926;2024-01-30T08:09:51;101234.16;;;10.33;100.00
46836;BME280;32573;51.290;6.926;2024-01-30T08:12:23;101238.59;;;10.34;100.00
46836;BME280;32573;51.290;6.926;2024-01-30T08:14:53;101232.53;;;10.35;100.00
46836;BME280;32573;51.290;6.926;2024-01-30T08:17:26;101232.53;;;10.35;100.00
46836;BME280;32573;51.290;6.926;2024-01-30T08:19:57;101230.00;;;10.36;100.00
46836;BME280;32573;51.290;6.926;2024-01-30T08:22:27;101238.81;;;10.39;100.00
46836;BME280;32573;51.290;6.926;2024-01-30T08:24:57;101238.81;;;10.39;100.00
46836;BME280;32573;51.290;6.926;2024-01-30T08:27:28;101238.81;;;10.39;100.00
46836;BME280;32573;51.290;6.926;2024-01-30T08:29:57;101240.69;;;10.41;100.00
46836;BME280;32573;51.290;6.926;2024-01-30T08:32:27;101242.44;;;10.42;100.00
46836;BME280;32573;51.290;6.926;2024-01-30T08:34:57;101238.19;;;10.44;100.00
46836;BME280;32573;51.290;6.926;2024-01-30T08:37:31;101239.06;;;10.45;100.00
46836;BME280;32573;51.290;6.926;2024-01-30T08:40:01;101247.00;;;10.46;100.00
46836;BME280;32573;51.290;6.926;2024-01-30T08:42:34;101250.59;;;10.48;100.00
46836;BME280;32573;51.290;6.926;2024-01-30T08:45:05;101246.25;;;10.49;100.00
46836;BME280;32573;51.290;6.926;2024-01-30T08:47:34;101248.94;;;10.50;100.00
46836;BME280;32573;51.290;6.926;2024-01-30T08:50:05;101246.38;;;10.52;100.00
46836;BME280;32573;51.290;6.926;2024-01-30T08:52:34;101249.97;;;10.54;100.00
46836;BME280;32573;51.290;6.926;2024-01-30T08:55:05;101252.66;;;10.55;100.00
46836;BME280;32573;51.290;6.926;2024-01-30T08:57:37;101265.81;;;10.57;100.00
46836;BME280;32573;51.290;6.926;2024-01-30T09:00:06;101260.66;;;10.58;100.00
46836;BME280;32573;51.290;6.926;2024-01-30T09:02:37;101261.59;;;10.61;100.00
46836;BME280;32573;51.290;6.926;2024-01-30T09:05:08;101267.75;;;10.61;100.00
46836;BME280;32573;51.290;6.926;2024-01-30T09:07:37;101269.53;;;10.62;100.00
46836;BME280;32573;51.290;6.926;2024-01-30T09:10:06;101266.03;;;10.62;100.00
46836;BME280;32573;51.290;6.926;2024-01-30T09:12:41;101269.63;;;10.64;100.00
46836;BME280;32573;51.290;6.926;2024-01-30T09:15:11;101278.38;;;10.64;100.00
46836;BME280;32573;51.290;6.926;2024-01-30T09:17:39;101281.88;;;10.65;100.00
46836;BME280;32573;51.290;6.926;2024-01-30T09:20:10;101282.84;;;10.67;100.00
46836;BME280;32573;51.290;6.926;2024-01-30T09:22:40;101288.97;;;10.67;100.00
46836;BME280;32573;51.290;6.926;2024-01-30T09:25:10;101288.22;;;10.70;100.00
46836;BME280;32573;51.290;6.926;2024-01-30T09:27:41;101287.41;;;10.71;100.00
46836;BME280;32573;51.290;6.926;2024-01-30T09:30:11;101291.81;;;10.72;100.00
46836;BME280;32573;51.290;6.926;2024-01-30T09:32:41;101296.28;;;10.74;100.00
46836;BME280;32573;51.290;6.926;2024-01-30T09:35:11;101294.63;;;10.76;100.00
46836;BME280;32573;51.290;6.926;2024-01-30T09:37:41;101295.53;;;10.77;100.00
46836;BME280;32573;51.290;6.926;2024-01-30T09:40:11;101292.22;;;10.81;100.00
46836;BME280;32573;51.290;6.926;2024-01-30T09:42:43;101289.66;;;10.83;100.00
46836;BME280;32573;51.290;6.926;2024-01-30T09:45:15;101288.91;;;10.85;100.00
46836;BME280;32573;51.290;6.926;2024-01-30T09:47:46;101292.56;;;10.89;100.00
46836;BME280;32573;51.290;6.926;2024-01-30T09:50:15;101286.56;;;10.91;100.00
46836;BME280;32573;51.290;6.926;2024-01-30T09:52:45;101287.56;;;10.93;100.00
46836;BME280;32573;51.290;6.926;2024-01-30T09:55:15;101285.94;;;10.97;100.00
46836;BME280;32573;51.290;6.926;2024-01-30T09:57:49;101287.81;;;10.99;100.00
46836;BME280;32573;51.290;6.926;2024-01-30T10:00:18;101280.03;;;11.01;100.00
46836;BME280;32573;51.290;6.926;2024-01-30T10:02:47;101281.94;;;11.05;100.00
46836;BME280;32573;51.290;6.926;2024-01-30T10:05:19;101285.53;;;11.07;100.00
46836;BME280;32573;51.290;6.926;2024-01-30T10:07:53;101290.00;;;11.10;100.00
46836;BME280;32573;51.290;6.926;2024-01-30T10:10:24;101295.38;;;11.13;100.00
46836;BME280;32573;51.290;6.926;2024-01-30T10:12:54;101292.94;;;11.17;100.00
46836;BME280;32573;51.290;6.926;2024-01-30T10:15:24;101299.25;;;11.21;100.00
46836;BME280;32573;51.290;6.926;2024-01-30T10:17:54;101303.72;;;11.23;100.00
46836;BME280;32573;51.290;6.926;2024-01-30T10:20:25;101300.34;;;11.26;100.00
46836;BME280;32573;51.290;6.926;2024-01-30T10:22:55;101304.81;;;11.29;100.00
46836;BME280;32573;51.290;6.926;2024-01-30T10:25:25;101294.38;;;11.30;100.00
46836;BME280;32573;51.290;6.926;2024-01-30T10:27:57;101296.31;;;11.34;100.00
46836;BME280;32573;51.290;6.926;2024-01-30T10:30:30;101294.78;;;11.39;100.00
46836;BME280;32573;51.290;6.926;2024-01-30T10:33:01;101293.13;;;11.41;100.00
46836;BME280;32573;51.290;6.926;2024-01-30T10:35:32;101289.75;;;11.44;100.00
46836;BME280;32573;51.290;6.926;2024-01-30T10:38:09;101298.63;;;11.48;100.00
46836;BME280;32573;51.290;6.926;2024-01-30T10:40:39;101289.09;;;11.50;100.00
46836;BME280;32573;51.290;6.926;2024-01-30T10:43:10;101274.34;;;11.52;100.00
46836;BME280;32573;51.290;6.926;2024-01-30T10:45:42;101292.81;;;11.55;100.00
46836;BME280;32573;51.290;6.926;2024-01-30T10:48:16;101298.19;;;11.58;100.00
46836;BME280;32573;51.290;6.926;2024-01-30T10:50:51;101298.25;;;11.59;100.00
46836;BME280;32573;51.290;6.926;2024-01-30T10:53:28;101301.00;;;11.62;100.00
46836;BME280;32573;51.290;6.926;2024-01-30T10:56:00;101301.06;;;11.64;100.00
46836;BME280;32573;51.290;6.926;2024-01-30T10:58:31;101297.72;;;11.68;100.00
46836;BME280;32573;51.290;6.926;2024-01-30T11:01:00;101289.16;;;11.72;100.00
46836;BME280;32573;51.290;6.926;2024-01-30T11:03:29;101287.50;;;11.74;100.00
46836;BME280;32573;51.290;6.926;2024-01-30T11:06:00;101299.94;;;11.78;100.00
46836;BME280;32573;51.290;6.926;2024-01-30T11:08:31;101301.81;;;11.82;100.00
46836;BME280;32573;51.290;6.926;2024-01-30T11:11:09;101292.38;;;11.86;100.00
46836;BME280;32573;51.290;6.926;2024-01-30T11:13:49;101296.88;;;11.89;100.00
46836;BME280;32573;51.290;6.926;2024-01-30T11:16:20;101304.00;;;11.91;100.00
46836;BME280;32573;51.290;6.926;2024-01-30T11:18:50;101300.59;;;11.94;100.00
46836;BME280;32573;51.290;6.926;2024-01-30T11:21:41;101308.56;;;11.97;100.00
46836;BME280;32573;51.290;6.926;2024-01-30T11:24:11;101301.66;;;11.99;100.00
46836;BME280;32573;51.290;6.926;2024-01-30T11:26:42;101306.97;;;12.00;100.00
46836;BME280;32573;51.290;6.926;2024-01-30T11:29:13;101307.94;;;12.02;100.00
46836;BME280;32573;51.290;6.926;2024-01-30T11:31:51;101292.25;;;12.04;100.00
46836;BME280;32573;51.290;6.926;2024-01-30T11:34:20;101298.47;;;12.06;100.00
46836;BME280;32573;51.290;6.926;2024-01-30T11:36:53;101304.66;;;12.08;100.00
46836;BME280;32573;51.290;6.926;2024-01-30T11:39:27;101297.72;;;12.10;100.00
46836;BME280;32573;51.290;6.926;2024-01-30T11:41:58;101291.66;;;12.11;100.00
46836;BME280;32573;51.290;6.926;2024-01-30T11:44:28;101296.97;;;12.13;100.00
46836;BME280;32573;51.290;6.926;2024-01-30T11:46:57;101297.03;;;12.14;100.00
46836;BME280;32573;51.290;6.926;2024-01-30T11:49:26;101294.41;;;12.14;100.00
46836;BME280;32573;51.290;6.926;2024-01-30T11:51:54;101305.88;;;12.16;100.00
46836;BME280;32573;51.290;6.926;2024-01-30T11:54:23;101305.03;;;12.17;100.00
46836;BME280;32573;51.290;6.926;2024-01-30T11:56:53;101306.84;;;12.18;100.00
46836;BME280;32573;51.290;6.926;2024-01-30T11:59:23;101309.47;;;12.18;100.00
46836;BME280;32573;51.290;6.926;2024-01-30T12:01:57;101314.72;;;12.18;100.00
46836;BME280;32573;51.290;6.926;2024-01-30T12:04:28;101301.59;;;12.18;100.00
46836;BME280;32573;51.290;6.926;2024-01-30T12:06:57;101308.59;;;12.19;100.00
46836;BME280;32573;51.290;6.926;2024-01-30T12:09:29;101308.59;;;12.19;100.00
46836;BME280;32573;51.290;6.926;2024-01-30T12:11:58;101309.50;;;12.20;100.00
46836;BME280;32573;51.290;6.926;2024-01-30T12:14:28;101305.97;;;12.19;100.00
46836;BME280;32573;51.290;6.926;2024-01-30T12:16:59;101305.13;;;12.20;100.00
46836;BME280;32573;51.290;6.926;2024-01-30T12:19:27;101291.97;;;12.19;100.00
46836;BME280;32573;51.290;6.926;2024-01-30T12:21:57;101290.22;;;12.19;100.00
46836;BME280;32573;51.290;6.926;2024-01-30T12:24:27;101290.31;;;12.21;100.00
46836;BME280;32573;51.290;6.926;2024-01-30T12:26:57;101301.69;;;12.21;100.00
46836;BME280;32573;51.290;6.926;2024-01-30T12:29:32;101298.22;;;12.22;100.00
46836;BME280;32573;51.290;6.926;2024-01-30T12:32:07;101299.13;;;12.23;100.00
46836;BME280;32573;51.290;6.926;2024-01-30T12:34:40;101291.19;;;12.21;100.00
46836;BME280;32573;51.290;6.926;2024-01-30T12:37:24;101287.72;;;12.22;100.00
46836;BME280;32573;51.290;6.926;2024-01-30T12:39:54;101302.66;;;12.23;100.00
46836;BME280;32573;51.290;6.926;2024-01-30T12:42:23;101300.97;;;12.25;100.00
46836;BME280;32573;51.290;6.926;2024-01-30T12:44:52;101300.16;;;12.26;100.00
46836;BME280;32573;51.290;6.926;2024-01-30T12:47:23;101288.69;;;12.24;100.00
46836;BME280;32573;51.290;6.926;2024-01-30T12:49:52;101287.84;;;12.25;100.00
46836;BME280;32573;51.290;6.926;2024-01-30T12:52:23;101284.41;;;12.26;100.00
46836;BME280;32573;51.290;6.926;2024-01-30T12:54:52;101293.09;;;12.25;100.00